Time;durP1;ratioP1;P1;durP2;ratioP2;P2;SDS_P1;SDS_P2;PMS_P1;PMS_P2;Temp;Humidity;BMP_temperature;BMP_pressure;BME280_temperature;BME280_humidity;BME280_pressure;Samples;Min_cycle;Max_cycle;Signal;HPM_P1;HPM_P2
2023/11/24 00:02:14;;;;;;;;;2.60;2.60;;;;;12.59;100.00;96898.88;6208643;28;96839;-65
2023/11/24 00:05:18;;;;;;;;;2.00;2.00;;;;;12.47;100.00;96897.63;6221594;28;96656;-65
2023/11/24 00:08:21;;;;;;;;;3.00;3.00;;;;;12.75;100.00;96913.09;6230920;28;97740;-64
2023/11/24 00:11:26;;;;;;;;;3.20;3.20;;;;;12.70;100.00;96910.44;6223689;28;96386;-66
2023/11/24 00:14:29;;;;;;;;;2.75;2.75;;;;;12.72;100.00;96896.59;6214135;28;96850;-65
2023/11/24 00:17:32;;;;;;;;;4.20;4.20;;;;;12.79;100.00;96903.31;6212951;28;96480;-66
2023/11/24 00:20:35;;;;;;;;;3.00;3.00;;;;;12.78;100.00;96892.78;6219583;28;98750;-65
2023/11/24 00:23:39;;;;;;;;;1.00;1.00;;;;;12.70;100.00;96896.09;6229263;28;97683;-65
2023/11/24 00:26:43;;;;;;;;;4.00;4.00;;;;;12.65;100.00;96902.38;6231251;28;96688;-65
2023/11/24 00:29:49;;;;;;;;;5.60;5.60;;;;;12.78;100.00;96880.06;6224467;28;98557;-65
2023/11/24 00:32:52;;;;;;;;;2.00;2.00;;;;;12.76;100.00;96870.63;6237670;28;96574;-64
2023/11/24 00:35:55;;;;;;;;;3.25;3.25;;;;;12.79;100.00;96848.44;6225846;28;96473;-65
2023/11/24 00:38:58;;;;;;;;;3.20;3.20;;;;;12.92;100.00;96869.38;6210423;28;96521;-64
2023/11/24 00:42:03;;;;;;;;;2.80;2.80;;;;;12.91;100.00;96846.94;6229713;28;96380;-65
2023/11/24 00:45:07;;;;;;;;;2.60;2.60;;;;;12.97;100.00;96864.75;6218288;28;96697;-62
2023/11/24 00:48:11;;;;;;;;;2.00;2.00;;;;;12.79;100.00;96857.34;6207146;28;97181;-64
2023/11/24 00:51:15;;;;;;;;;4.00;4.00;;;;;12.96;100.00;96863.13;6226746;28;96510;-65
2023/11/24 00:54:18;;;;;;;;;1.00;1.00;;;;;12.92;100.00;96837.75;6217750;28;96451;-71
2023/11/24 00:57:23;;;;;;;;;2.00;2.00;;;;;13.01;100.00;96852.25;6236607;28;96199;-71
2023/11/24 01:00:27;;;;;;;;;2.00;2.00;;;;;13.02;100.00;96837.63;6235924;28;96645;-71
2023/11/24 01:03:30;;;;;;;;;4.00;4.00;;;;;13.10;100.00;96852.41;6241521;27;96806;-71
2023/11/24 01:06:34;;;;;;;;;5.50;5.00;;;;;12.95;100.00;96872.31;6220077;28;99567;-72
2023/11/24 01:09:37;;;;;;;;;3.60;3.60;;;;;12.69;100.00;96856.63;6228630;28;96932;-71
2023/11/24 01:12:41;;;;;;;;;4.00;4.00;;;;;12.67;100.00;96851.50;6233221;28;96580;-71
2023/11/24 01:15:45;;;;;;;;;3.40;3.40;;;;;12.67;100.00;96846.09;6210557;28;96545;-70
2023/11/24 01:18:48;;;;;;;;;2.00;2.00;;;;;12.78;100.00;96846.81;6200227;28;99122;-71
2023/11/24 01:21:52;;;;;;;;;3.00;3.00;;;;;12.87;100.00;96862.13;6235495;28;96279;-71
2023/11/24 01:24:55;;;;;;;;;3.00;3.00;;;;;12.81;100.00;96851.63;6219900;27;96461;-72
2023/11/24 01:28:01;;;;;;;;;1.00;1.00;;;;;12.85;100.00;96845.38;6220947;28;98477;-71
2023/11/24 01:31:06;;;;;;;;;1.60;1.60;;;;;12.88;100.00;96849.41;6235453;28;96327;-71
2023/11/24 01:34:09;;;;;;;;;2.80;2.80;;;;;12.99;100.00;96846.34;6239298;28;96557;-72
2023/11/24 01:37:12;;;;;;;;;2.60;2.60;;;;;12.96;100.00;96862.31;6235149;28;96395;-72
2023/11/24 01:40:17;;;;;;;;;4.00;4.00;;;;;12.89;100.00;96851.84;6243341;27;96704;-71
2023/11/24 01:43:22;;;;;;;;;3.00;3.00;;;;;12.89;100.00;96865.38;6199884;28;97804;-71
2023/11/24 01:46:25;;;;;;;;;3.00;2.60;;;;;12.73;100.00;96874.72;6235464;28;96282;-71
2023/11/24 01:49:29;;;;;;;;;4.00;4.00;;;;;12.65;100.00;96878.03;6227089;28;96627;-71
2023/11/24 01:52:33;;;;;;;;;5.40;5.40;;;;;12.63;100.00;96890.19;6214212;28;97016;-72
2023/11/24 01:55:36;;;;;;;;;4.40;4.40;;;;;12.80;100.00;96914.94;6243884;27;96693;-71
2023/11/24 01:58:41;;;;;;;;;3.25;2.75;;;;;12.64;100.00;96905.34;6240583;27;96469;-71
2023/11/24 02:01:45;;;;;;;;;3.75;3.50;;;;;12.59;100.00;96931.31;6234625;22;98840;-63
2023/11/24 02:04:48;;;;;;;;;4.00;4.00;;;;;12.58;100.00;96945.09;6215962;28;97029;-67
2023/11/24 02:07:52;;;;;;;;;3.00;3.00;;;;;12.64;100.00;96967.50;6213344;28;96579;-67
2023/11/24 02:10:56;;;;;;;;;4.00;4.00;;;;;12.52;100.00;96973.25;6184018;28;98642;-67
2023/11/24 02:14:00;;;;;;;;;6.00;5.00;;;;;12.46;100.00;96996.03;6193492;28;98513;-67
2023/11/24 02:17:04;;;;;;;;;4.60;4.60;;;;;12.04;100.00;96994.59;6166194;28;98478;-67
2023/11/24 02:20:13;;;;;;;;;2.20;2.20;;;;;11.83;100.00;97011.13;6174050;28;98509;-67
2023/11/24 02:23:18;;;;;;;;;3.00;3.00;;;;;11.76;100.00;96994.44;6174695;28;97826;-67
2023/11/24 02:26:21;;;;;;;;;3.00;3.00;;;;;11.61;100.00;96989.88;6178681;28;97021;-65
2023/11/24 02:29:24;;;;;;;;;2.25;2.00;;;;;11.56;100.00;96987.19;6179201;28;96802;-66
2023/11/24 02:32:28;;;;;;;;;2.00;2.00;;;;;11.49;100.00;96970.44;6192055;28;96566;-67
2023/11/24 02:35:31;;;;;;;;;3.00;2.00;;;;;11.43;100.00;96983.19;6194803;28;96377;-67
2023/11/24 02:38:36;;;;;;;;;3.00;3.00;;;;;11.34;100.00;96994.78;6179210;28;96796;-68
2023/11/24 02:41:39;;;;;;;;;4.00;4.00;;;;;11.20;100.00;96986.44;6195265;28;98377;-67
2023/11/24 02:44:42;;;;;;;;;4.00;4.00;;;;;11.10;100.00;96979.16;6179547;28;98502;-67
2023/11/24 02:47:45;;;;;;;;;2.00;2.00;;;;;11.05;100.00;96968.38;6203752;28;96844;-67
2023/11/24 02:50:48;;;;;;;;;1.00;1.00;;;;;10.98;100.00;96975.13;6195795;28;96372;-67
2023/11/24 02:53:53;;;;;;;;;1.50;1.50;;;;;10.89;100.00;96965.97;6205892;28;96329;-67
2023/11/24 02:56:56;;;;;;;;;2.00;2.00;;;;;10.85;100.00;96963.00;6198103;28;96455;-66
2023/11/24 02:59:59;;;;;;;;;2.00;2.00;;;;;10.63;100.00;96957.06;6182160;28;96288;-67
2023/11/24 03:03:03;;;;;;;;;2.00;2.00;;;;;10.57;100.00;96964.34;6194841;28;96748;-67
2023/11/24 03:06:07;;;;;;;;;3.00;3.00;;;;;10.63;100.00;96941.72;6172153;28;96876;-67
2023/11/24 03:09:13;;;;;;;;;4.00;4.00;;;;;10.49;100.00;96945.22;6194575;28;96828;-67
2023/11/24 03:12:16;;;;;;;;;1.60;1.60;;;;;10.49;100.00;96953.28;6191574;28;97212;-60
2023/11/24 03:15:19;;;;;;;;;2.00;1.40;;;;;10.47;100.00;96961.63;6214170;28;96315;-61
2023/11/24 03:18:23;;;;;;;;;3.75;3.75;;;;;10.45;100.00;96984.53;6194925;28;96668;-60
2023/11/24 03:21:26;;;;;;;;;4.00;4.00;;;;;10.33;100.00;96976.69;6207451;28;97071;-61
2023/11/24 03:24:30;;;;;;;;;2.60;2.60;;;;;10.22;100.00;96948.94;6214272;28;96835;-60
2023/11/24 03:27:33;;;;;;;;;1.00;1.00;;;;;10.27;100.00;96937.34;6210531;28;97146;-60
2023/11/24 03:30:36;;;;;;;;;2.25;2.25;;;;;10.28;100.00;96920.94;6206511;28;96394;-61
2023/11/24 03:33:39;;;;;;;;;1.00;1.00;;;;;10.16;100.00;96909.63;6181709;28;99792;-60
2023/11/24 03:36:42;;;;;;;;;3.00;3.00;;;;;10.14;100.00;96940.53;6224469;28;96624;-60
2023/11/24 03:39:47;;;;;;;;;2.00;2.00;;;;;10.14;100.00;96935.16;6184350;28;97824;-60
2023/11/24 03:42:51;;;;;;;;;2.00;2.00;;;;;10.14;100.00;96919.81;6211372;28;96300;-60
2023/11/24 03:45:56;;;;;;;;;1.00;1.00;;;;;10.10;100.00;96915.22;6204988;28;96348;-59
2023/11/24 03:48:59;;;;;;;;;2.00;2.00;;;;;10.05;100.00;96910.66;6204995;28;98832;-60
2023/11/24 03:52:04;;;;;;;;;1.00;1.00;;;;;10.20;100.00;96921.47;6196040;28;97212;-59
2023/11/24 03:55:11;;;;;;;;;3.00;2.00;;;;;10.12;100.00;96923.84;6209710;28;96540;-60
2023/11/24 03:58:14;;;;;;;;;1.20;1.20;;;;;10.02;100.00;96895.00;6195795;28;96765;-61
2023/11/24 04:01:18;;;;;;;;;1.80;1.40;;;;;9.97;100.00;96895.81;6182368;28;97205;-62
2023/11/24 04:04:21;;;;;;;;;2.60;2.60;;;;;9.97;100.00;96887.72;6169212;28;98023;-61
2023/11/24 04:07:25;;;;;;;;;0.00;0.00;;;;;9.88;100.00;96877.75;6216471;28;96505;-60
2023/11/24 04:10:29;;;;;;;;;1.00;1.00;;;;;9.81;100.00;96883.41;6207231;28;97404;-60
2023/11/24 04:13:32;;;;;;;;;2.00;2.00;;;;;10.09;100.00;96884.81;6168818;28;99390;-60
2023/11/24 04:16:37;;;;;;;;;2.00;2.00;;;;;10.13;100.00;96895.84;6174872;28;98427;-59
2023/11/24 04:19:41;;;;;;;;;1.00;1.00;;;;;10.26;100.00;96881.91;6177004;28;96683;-60
2023/11/24 04:22:45;;;;;;;;;1.00;1.00;;;;;10.25;100.00;96870.31;6195047;28;96656;-71
2023/11/24 04:25:49;;;;;;;;;1.00;1.00;;;;;10.17;100.00;96852.00;6206497;28;96686;-72
2023/11/24 04:28:54;;;;;;;;;3.00;3.00;;;;;10.19;100.00;96849.03;6205432;28;96886;-72
2023/11/24 04:31:58;;;;;;;;;3.20;3.20;;;;;10.13;100.00;96850.88;6187134;28;96713;-65
2023/11/24 04:35:01;;;;;;;;;2.00;2.00;;;;;10.23;100.00;96860.88;6189891;28;96793;-73
2023/11/24 04:38:05;;;;;;;;;1.60;1.60;;;;;10.23;100.00;96871.66;6209478;28;97119;-71
2023/11/24 04:41:10;;;;;;;;;1.00;1.00;;;;;10.20;100.00;96856.84;6209604;28;96593;-71
2023/11/24 04:44:14;;;;;;;;;3.00;3.00;;;;;10.19;100.00;96832.88;6175259;28;98494;-70
2023/11/24 04:47:17;;;;;;;;;1.00;1.00;;;;;10.11;100.00;96815.38;6181884;28;98874;-72
2023/11/24 04:50:20;;;;;;;;;2.00;2.00;;;;;10.04;100.00;96855.19;6194605;28;96891;-72
2023/11/24 04:53:23;;;;;;;;;1.00;1.00;;;;;10.15;100.00;96853.31;6176771;28;96548;-72
2023/11/24 04:56:28;;;;;;;;;1.60;1.60;;;;;10.02;100.00;96838.47;6187134;28;96972;-71
2023/11/24 04:59:31;;;;;;;;;3.00;3.00;;;;;10.15;100.00;96839.84;6221317;28;96962;-73
2023/11/24 05:02:35;;;;;;;;;1.00;0.60;;;;;10.24;100.00;96839.06;6195052;28;98051;-74
2023/11/24 05:05:38;;;;;;;;;1.00;1.00;;;;;10.12;100.00;96826.91;6209895;28;97243;-73
2023/11/24 05:08:42;;;;;;;;;0.00;0.00;;;;;10.02;100.00;96825.84;6214921;28;96353;-72
2023/11/24 05:11:49;;;;;;;;;2.00;2.00;;;;;9.94;100.00;96823.69;6206819;28;96915;-72
2023/11/24 05:14:53;;;;;;;;;1.00;1.00;;;;;9.92;100.00;96796.22;6204501;28;96442;-74
2023/11/24 05:18:01;;;;;;;;;0.80;0.80;;;;;9.87;100.00;96787.34;6186497;28;98826;-71
2023/11/24 05:21:04;;;;;;;;;2.00;1.00;;;;;9.99;100.00;96820.19;6175156;28;96650;-69
2023/11/24 05:24:08;;;;;;;;;1.00;1.00;;;;;9.76;100.00;96780.34;6201597;28;96409;-71
2023/11/24 05:27:13;;;;;;;;;1.60;1.00;;;;;10.04;100.00;96833.66;6182110;28;96396;-73
2023/11/24 05:30:16;;;;;;;;;1.00;1.00;;;;;10.11;100.00;96844.97;6210005;28;97172;-74
2023/11/24 05:33:19;;;;;;;;;2.00;1.00;;;;;10.18;100.00;96853.59;6187248;28;96522;-68
2023/11/24 05:36:23;;;;;;;;;2.00;2.00;;;;;10.17;100.00;96833.13;6191844;28;96718;-66
2023/11/24 05:39:26;;;;;;;;;1.00;1.00;;;;;10.22;100.00;96837.72;6191594;28;97099;-67
2023/11/24 05:42:31;;;;;;;;;2.00;2.00;;;;;10.34;100.00;96840.97;6196134;28;96705;-66
2023/11/24 05:45:35;;;;;;;;;2.00;1.00;;;;;10.32;100.00;96843.09;6185445;28;97361;-67
2023/11/24 05:48:38;;;;;;;;;1.00;1.00;;;;;10.37;100.00;96846.59;6195859;28;99061;-66
2023/11/24 05:51:41;;;;;;;;;2.00;2.00;;;;;10.47;100.00;96858.44;6204785;28;96217;-67
2023/11/24 05:54:48;;;;;;;;;1.60;1.60;;;;;10.38;100.00;96852.81;6198346;28;96867;-67
2023/11/24 05:57:52;;;;;;;;;2.00;2.00;;;;;10.37;100.00;96878.94;6204926;28;96781;-66
2023/11/24 06:00:55;;;;;;;;;1.40;1.00;;;;;10.42;100.00;96862.78;6231209;28;96238;-67
2023/11/24 06:03:58;;;;;;;;;2.00;1.20;;;;;10.17;100.00;96872.72;6191712;28;99781;-65
2023/11/24 06:07:02;;;;;;;;;2.00;1.00;;;;;10.26;100.00;96861.16;6193851;28;96735;-66
2023/11/24 06:10:06;;;;;;;;;1.00;1.00;;;;;10.31;100.00;96865.75;6182865;28;97384;-65
2023/11/24 06:13:11;;;;;;;;;1.20;1.00;;;;;10.23;100.00;96877.84;6195743;28;97494;-67
2023/11/24 06:16:14;;;;;;;;;1.00;1.00;;;;;10.29;100.00;96855.25;6196035;28;96724;-67
2023/11/24 06:19:18;;;;;;;;;1.00;1.00;;;;;10.23;100.00;96858.19;6180480;28;97106;-67
2023/11/24 06:22:21;;;;;;;;;2.00;2.00;;;;;10.28;100.00;96872.47;6191472;28;96562;-66
2023/11/24 06:25:24;;;;;;;;;1.00;1.00;;;;;10.14;100.00;96898.28;6213708;28;96689;-68
2023/11/24 06:28:29;;;;;;;;;3.00;2.25;;;;;10.21;100.00;96895.38;6211658;28;96629;-66
2023/11/24 06:31:32;;;;;;;;;1.00;1.00;;;;;10.25;100.00;96908.03;6199033;28;96809;-68
2023/11/24 06:34:35;;;;;;;;;1.00;1.00;;;;;10.29;100.00;96902.91;6195241;28;96764;-66
2023/11/24 06:37:40;;;;;;;;;1.00;1.00;;;;;10.20;100.00;96902.63;6177833;28;96829;-66
2023/11/24 06:40:44;;;;;;;;;2.00;2.00;;;;;10.20;100.00;96908.00;6187879;28;96496;-67
2023/11/24 06:43:49;;;;;;;;;1.00;1.00;;;;;10.25;100.00;96908.03;6173252;28;98962;-61
2023/11/24 06:46:52;;;;;;;;;2.00;2.00;;;;;9.98;100.00;96904.69;6208859;28;96353;-59
2023/11/24 06:49:56;;;;;;;;;1.80;1.80;;;;;10.10;100.00;96915.22;6201713;28;96499;-63
2023/11/24 06:52:59;;;;;;;;;1.00;1.00;;;;;10.13;100.00;96941.59;6184801;28;96590;-62
2023/11/24 06:56:02;;;;;;;;;1.00;1.00;;;;;10.01;100.00;96947.25;6202092;28;96806;-62
2023/11/24 06:59:07;;;;;;;;;1.00;1.00;;;;;9.97;100.00;96948.84;6203895;28;96535;-60
2023/11/24 07:02:10;;;;;;;;;1.00;1.00;;;;;9.89;100.00;96960.13;6190502;28;96681;-61
2023/11/24 07:05:13;;;;;;;;;1.25;1.25;;;;;9.84;100.00;96952.84;6202490;28;96549;-60
2023/11/24 07:08:17;;;;;;;;;1.20;1.20;;;;;9.89;100.00;96950.16;6185873;28;96231;-62
2023/11/24 07:11:20;;;;;;;;;1.50;1.50;;;;;10.08;100.00;96955.88;6195553;28;98122;-60
2023/11/24 07:14:25;;;;;;;;;1.40;1.40;;;;;10.23;100.00;96961.31;6186888;28;96704;-60
2023/11/24 07:17:31;;;;;;;;;2.00;2.00;;;;;11.98;100.00;96955.19;6204715;28;96498;-60
2023/11/24 07:20:34;;;;;;;;;2.00;2.00;;;;;14.47;100.00;96953.66;6196083;28;96462;-60
2023/11/24 07:23:38;;;;;;;;;2.00;2.00;;;;;16.33;100.00;96970.41;6210461;28;96308;-61
2023/11/24 07:26:41;;;;;;;;;2.00;2.00;;;;;17.30;91.73;96961.59;6210980;28;96256;-59
2023/11/24 07:29:45;;;;;;;;;3.00;2.40;;;;;19.05;79.07;96972.41;6178875;28;98648;-60
2023/11/24 07:32:50;;;;;;;;;1.80;1.80;;;;;20.70;69.63;96976.94;6214722;28;96866;-60
2023/11/24 07:35:53;;;;;;;;;1.60;1.60;;;;;21.30;58.76;96975.66;6196388;28;96256;-61
2023/11/24 07:38:57;;;;;;;;;1.00;1.00;;;;;20.80;63.35;96989.44;6199333;28;96509;-60
2023/11/24 07:42:00;;;;;;;;;1.20;1.00;;;;;19.09;75.69;96984.28;6193428;28;97616;-62
2023/11/24 07:45:05;;;;;;;;;2.00;1.00;;;;;17.49;86.64;96980.47;6173767;28;96646;-62
2023/11/24 07:48:08;;;;;;;;;3.00;2.60;;;;;17.01;93.14;96969.41;6178213;28;96846;-59
2023/11/24 07:51:12;;;;;;;;;2.00;2.00;;;;;18.47;85.93;96961.91;6173450;28;96972;-61
2023/11/24 07:54:15;;;;;;;;;1.60;1.00;;;;;19.78;77.38;96952.16;6192491;28;96652;-72
2023/11/24 07:57:18;;;;;;;;;3.00;3.00;;;;;21.66;61.22;96942.03;6177893;28;98630;-73
2023/11/24 08:00:24;;;;;;;;;1.20;1.20;;;;;23.17;47.41;96943.28;6185436;28;96524;-74
2023/11/24 08:03:28;;;;;;;;;1.00;1.00;;;;;24.53;42.64;96940.88;6197896;28;97572;-74
2023/11/24 08:06:31;;;;;;;;;2.00;1.50;;;;;25.30;37.95;96943.72;6175000;28;97106;-75
2023/11/24 08:09:34;;;;;;;;;2.00;2.00;;;;;26.43;35.01;96927.56;6181792;28;98467;-74
2023/11/24 08:12:37;;;;;;;;;1.80;1.80;;;;;27.09;32.04;96936.00;6197590;28;96597;-75
2023/11/24 08:15:43;;;;;;;;;2.20;2.00;;;;;27.96;31.56;96937.34;6198294;28;97198;-76
2023/11/24 08:18:46;;;;;;;;;3.50;3.00;;;;;27.53;30.50;96935.34;6198821;28;96933;-76
2023/11/24 08:21:53;;;;;;;;;3.00;2.00;;;;;26.93;30.37;96942.88;6187475;28;96865;-76
2023/11/24 08:24:56;;;;;;;;;2.00;2.00;;;;;26.40;33.19;96937.38;6194373;28;97136;-75
2023/11/24 08:27:59;;;;;;;;;2.00;2.00;;;;;26.48;33.12;96941.88;6210216;28;96638;-75
2023/11/24 08:31:05;;;;;;;;;3.00;2.00;;;;;25.11;34.96;96934.66;6171820;28;98750;-72
2023/11/24 08:34:09;;;;;;;;;3.00;3.00;;;;;24.48;35.76;96941.16;6198948;28;97408;-73
2023/11/24 08:37:12;;;;;;;;;1.75;1.75;;;;;22.76;40.62;96938.97;6180117;28;98268;-74
2023/11/24 08:40:16;;;;;;;;;2.00;2.00;;;;;21.64;45.20;96931.44;6205182;28;96827;-75
2023/11/24 08:43:21;;;;;;;;;2.00;2.00;;;;;20.45;48.83;96928.66;6170017;28;98733;-76
2023/11/24 08:46:26;;;;;;;;;2.00;2.00;;;;;20.93;48.46;96934.38;6199488;28;96324;-73
2023/11/24 08:49:29;;;;;;;;;4.60;3.00;;;;;21.89;42.21;96927.56;6185236;28;98890;-72
2023/11/24 08:52:32;;;;;;;;;3.00;3.00;;;;;22.78;39.55;96911.13;6189562;28;97599;-75
2023/11/24 08:55:36;;;;;;;;;2.00;2.00;;;;;24.00;36.26;96920.31;6207761;28;96482;-76
2023/11/24 08:58:39;;;;;;;;;1.00;1.00;;;;;24.61;34.90;96914.28;6210751;28;97209;-75
2023/11/24 09:01:43;;;;;;;;;3.75;3.00;;;;;23.13;37.69;96897.59;6142242;28;1178812;-76
2023/11/24 09:04:47;;;;;;;;;2.00;2.00;;;;;22.43;40.38;96894.41;6197727;28;96406;-64
2023/11/24 09:07:50;;;;;;;;;2.00;1.00;;;;;22.21;39.99;96883.91;6184266;28;98280;-64
2023/11/24 09:10:53;;;;;;;;;2.20;2.00;;;;;21.80;43.61;96873.94;6216139;28;96774;-64
2023/11/24 09:13:56;;;;;;;;;3.00;3.00;;;;;21.61;44.09;96874.50;6215628;28;96384;-64
2023/11/24 09:17:02;;;;;;;;;3.00;3.00;;;;;20.33;50.97;96879.31;6190086;28;96552;-65
2023/11/24 09:20:08;;;;;;;;;2.00;2.00;;;;;18.91;60.98;96851.63;6209693;28;96322;-65
2023/11/24 09:23:11;;;;;;;;;3.00;2.00;;;;;19.72;59.09;96856.97;6207400;28;96563;-63
2023/11/24 09:26:14;;;;;;;;;2.80;2.00;;;;;20.92;52.58;96847.06;6171739;28;97215;-63
2023/11/24 09:29:19;;;;;;;;;3.40;2.60;;;;;21.43;46.42;96834.75;6201595;28;96264;-64
2023/11/24 09:32:24;;;;;;;;;2.00;1.40;;;;;22.55;42.98;96844.13;6169521;28;99566;-66
2023/11/24 09:35:27;;;;;;;;;2.00;2.00;;;;;23.85;37.59;96835.81;6201658;28;96265;-64
2023/11/24 09:38:30;;;;;;;;;2.00;2.00;;;;;24.97;34.68;96831.19;6197095;28;96655;-65
2023/11/24 09:41:39;;;;;;;;;3.00;2.20;;;;;25.69;32.75;96822.25;6206072;28;96493;-66
2023/11/24 09:44:43;;;;;;;;;4.00;2.40;;;;;26.26;31.14;96824.72;6191104;28;98001;-65
2023/11/24 09:47:50;;;;;;;;;2.20;2.00;;;;;26.71;28.82;96820.16;6198044;28;96896;-65
2023/11/24 09:50:55;;;;;;;;;2.00;2.00;;;;;26.81;28.43;96804.88;6156091;28;97404;-66
2023/11/24 09:54:02;;;;;;;;;2.50;2.00;;;;;27.66;28.29;96812.09;6191087;28;96558;-66
2023/11/24 09:57:06;;;;;;;;;3.00;2.00;;;;;27.27;27.66;96803.41;6196134;28;96531;-67
2023/11/24 10:00:10;;;;;;;;;3.00;3.00;;;;;27.97;28.05;96806.00;6192357;28;96255;-65
2023/11/24 10:03:16;;;;;;;;;3.00;2.00;;;;;28.43;27.03;96799.97;6196406;28;96980;-66
2023/11/24 10:06:19;;;;;;;;;1.00;1.00;;;;;28.66;26.82;96806.00;6209873;28;98099;-66
2023/11/24 10:09:25;;;;;;;;;1.00;0.40;;;;;28.87;25.97;96787.88;6214758;28;96987;-66
2023/11/24 10:12:29;;;;;;;;;1.00;1.00;;;;;28.71;26.10;96789.03;6213583;28;96399;-76
2023/11/24 10:15:33;;;;;;;;;2.00;2.00;;;;;28.41;25.77;96791.25;6196636;28;96479;-76
2023/11/24 10:18:38;;;;;;;;;1.00;0.00;;;;;27.38;26.06;96762.00;6203961;28;96883;-76
2023/11/24 10:21:44;;;;;;;;;2.00;1.00;;;;;26.87;27.55;96762.75;6190002;28;98412;-76
2023/11/24 10:24:47;;;;;;;;;1.20;1.00;;;;;26.12;29.11;96757.44;6189923;28;96684;-74
2023/11/24 10:27:56;;;;;;;;;2.00;2.00;;;;;25.76;28.99;96748.63;6210354;28;96358;-76
2023/11/24 10:31:04;;;;;;;;;1.00;0.00;;;;;26.02;28.89;96739.53;6191977;28;96402;-74
2023/11/24 10:34:10;;;;;;;;;1.00;1.00;;;;;25.20;29.46;96739.47;6189064;28;96787;-74
2023/11/24 10:37:17;;;;;;;;;2.00;2.00;;;;;24.63;30.37;96735.63;6204285;28;96661;-75
2023/11/24 10:40:21;;;;;;;;;1.50;1.50;;;;;23.84;31.17;96728.88;6210608;28;96537;-74
2023/11/24 10:43:31;;;;;;;;;2.00;2.00;;;;;23.88;32.64;96735.25;6192473;28;98454;-74
2023/11/24 10:46:38;;;;;;;;;4.00;3.00;;;;;23.01;33.03;96727.31;6191902;28;98730;-72
2023/11/24 10:49:49;;;;;;;;;1.80;1.00;;;;;23.53;32.09;96727.81;6191420;28;96569;-75
2023/11/24 10:53:06;;;;;;;;;0.40;0.40;;;;;23.20;32.12;96717.19;6185824;28;96544;-75
2023/11/24 10:56:10;;;;;;;;;2.00;2.00;;;;;23.34;32.79;96727.72;6198947;28;96793;-75
2023/11/24 10:59:16;;;;;;;;;1.00;1.00;;;;;23.62;32.09;96736.66;6184560;28;97237;-75
2023/11/24 11:02:20;;;;;;;;;1.40;1.00;;;;;23.69;31.60;96714.81;6191287;28;96690;-76
2023/11/24 11:05:36;;;;;;;;;3.00;2.00;;;;;22.99;32.48;96704.84;6183547;28;96798;-75
2023/11/24 11:08:44;;;;;;;;;1.00;1.00;;;;;22.62;33.15;96701.53;6189973;28;96838;-75
2023/11/24 11:12:19;;;;;;;;;1.40;1.40;;;;;22.76;33.23;96696.44;6204658;28;97481;-75
2023/11/24 11:15:28;;;;;;;;;1.00;1.00;;;;;23.04;32.08;96680.66;6213770;28;96390;-73
2023/11/24 11:18:33;;;;;;;;;1.00;1.00;;;;;23.33;32.12;96690.38;6189656;28;96304;-72
2023/11/24 11:21:39;;;;;;;;;1.00;1.00;;;;;23.20;32.36;96681.44;6177269;28;99775;-75
2023/11/24 11:24:43;;;;;;;;;2.00;1.40;;;;;22.40;32.96;96684.50;6186115;28;96673;-69
2023/11/24 11:27:47;;;;;;;;;1.60;1.00;;;;;21.43;34.07;96670.28;6187613;28;99436;-69
2023/11/24 11:30:51;;;;;;;;;1.60;1.00;;;;;20.68;36.54;96676.09;6183298;28;98364;-68
2023/11/24 11:33:55;;;;;;;;;3.00;2.00;;;;;20.73;37.70;96664.91;6200751;28;96405;-68
2023/11/24 11:37:11;;;;;;;;;0.00;0.00;;;;;20.18;37.88;96659.09;6199287;28;96764;-66
2023/11/24 11:40:19;;;;;;;;;1.00;0.60;;;;;19.15;39.76;96687.22;6184084;28;96657;-66
2023/11/24 11:43:22;;;;;;;;;2.00;2.00;;;;;18.23;44.03;96667.00;6186073;28;98835;-68
2023/11/24 11:46:26;;;;;;;;;1.00;1.00;;;;;17.44;47.54;96665.44;6191281;28;96591;-67
2023/11/24 11:49:30;;;;;;;;;1.00;1.00;;;;;16.56;53.67;96653.84;6174305;28;96597;-68
2023/11/24 11:52:39;;;;;;;;;2.60;2.00;;;;;15.65;59.96;96644.50;6174751;28;97079;-68
2023/11/24 11:55:44;;;;;;;;;2.00;1.00;;;;;15.24;64.87;96669.06;6199202;28;96660;-67
2023/11/24 11:58:47;;;;;;;;;2.00;2.00;;;;;14.25;74.26;96669.66;6199705;28;96393;-66
2023/11/24 12:01:51;;;;;;;;;2.00;1.50;;;;;13.90;78.62;96671.09;6192709;28;96248;-67
2023/11/24 12:04:54;;;;;;;;;3.40;3.00;;;;;13.72;81.64;96672.75;6172473;28;96872;-67
2023/11/24 12:08:00;;;;;;;;;2.00;2.00;;;;;13.75;82.14;96671.34;6212333;28;96152;-66
2023/11/24 12:11:03;;;;;;;;;1.00;1.00;;;;;13.59;81.91;96654.53;6194168;28;96777;-66
2023/11/24 12:14:07;;;;;;;;;3.00;2.40;;;;;13.25;85.72;96676.41;6189306;28;96320;-65
2023/11/24 12:17:12;;;;;;;;;1.40;1.40;;;;;13.06;85.14;96664.75;6191056;28;96618;-65
2023/11/24 12:20:17;;;;;;;;;2.40;2.00;;;;;12.86;88.64;96652.31;6176648;28;96224;-65
2023/11/24 12:23:23;;;;;;;;;2.00;2.00;;;;;12.50;91.24;96645.75;6193341;28;96913;-65
2023/11/24 12:26:26;;;;;;;;;2.00;2.00;;;;;12.45;92.64;96640.41;6196075;28;96862;-66
2023/11/24 12:29:30;;;;;;;;;2.20;2.20;;;;;12.21;95.45;96662.00;6198700;28;97046;-66
2023/11/24 12:32:33;;;;;;;;;2.00;2.00;;;;;12.25;96.12;96660.34;6171304;28;98545;-62
2023/11/24 12:35:37;;;;;;;;;5.00;4.00;;;;;12.20;97.95;96659.59;6184116;28;98616;-61
2023/11/24 12:38:42;;;;;;;;;3.75;2.75;;;;;11.82;100.00;96651.31;6165328;28;98614;-63
2023/11/24 12:41:46;;;;;;;;;2.75;2.00;;;;;11.94;99.89;96654.44;6197109;28;96726;-61
2023/11/24 12:44:50;;;;;;;;;2.00;2.00;;;;;12.08;98.72;96657.25;6167469;28;96699;-61
2023/11/24 12:48:05;;;;;;;;;3.00;2.00;;;;;12.05;97.13;96644.34;6177452;28;98790;-63
2023/11/24 12:51:08;;;;;;;;;2.50;2.00;;;;;12.19;94.69;96656.06;6192461;28;96635;-62
2023/11/24 12:54:13;;;;;;;;;2.00;2.00;;;;;12.30;93.00;96651.38;6197067;28;97369;-64
2023/11/24 12:57:17;;;;;;;;;4.00;2.00;;;;;12.18;89.43;96645.53;6156916;28;98819;-63
2023/11/24 13:00:26;;;;;;;;;3.00;2.00;;;;;11.76;84.54;96606.56;6195299;28;97437;-61
2023/11/24 13:03:29;;;;;;;;;2.60;2.60;;;;;11.75;84.43;96587.94;6179228;28;97605;-63
2023/11/24 13:06:32;;;;;;;;;2.00;2.00;;;;;11.94;82.74;96648.22;6175164;28;96275;-62
2023/11/24 13:09:37;;;;;;;;;2.00;1.50;;;;;11.79;81.69;96619.47;6181642;28;97245;-61
2023/11/24 13:12:41;;;;;;;;;3.00;3.00;;;;;11.62;79.40;96627.16;6187220;28;96629;-62
2023/11/24 13:15:46;;;;;;;;;1.00;0.00;;;;;11.25;78.01;96617.72;6184334;28;96200;-64
2023/11/24 13:18:49;;;;;;;;;1.00;1.00;;;;;11.02;80.54;96610.34;6179708;28;96246;-61
2023/11/24 13:21:56;;;;;;;;;1.20;1.20;;;;;10.89;81.14;96588.59;6159132;28;99549;-62
2023/11/24 13:25:00;;;;;;;;;1.00;1.00;;;;;11.11;82.53;96630.25;6184639;28;97471;-62
2023/11/24 13:28:05;;;;;;;;;2.00;2.00;;;;;11.11;82.98;96629.44;6192010;28;96355;-61
2023/11/24 13:31:08;;;;;;;;;1.20;1.20;;;;;11.19;83.98;96637.72;6193703;28;96705;-61
2023/11/24 13:34:14;;;;;;;;;2.00;1.00;;;;;11.21;84.69;96627.47;6169658;28;98534;-61
2023/11/24 13:37:18;;;;;;;;;1.00;1.00;;;;;11.24;83.88;96636.88;6183158;28;96507;-60
2023/11/24 13:40:25;;;;;;;;;1.75;1.00;;;;;11.10;86.29;96611.63;6170361;28;96307;-62
2023/11/24 13:43:30;;;;;;;;;1.80;1.00;;;;;11.26;87.34;96643.63;6176790;28;96937;-67
2023/11/24 13:46:33;;;;;;;;;2.00;2.00;;;;;11.22;87.82;96652.56;6170739;28;98410;-67
2023/11/24 13:49:37;;;;;;;;;2.00;1.00;;;;;11.21;89.75;96654.44;6161853;28;96664;-67
2023/11/24 13:52:41;;;;;;;;;1.00;1.00;;;;;11.19;90.87;96662.00;6177285;28;98703;-67
2023/11/24 13:55:47;;;;;;;;;2.00;1.50;;;;;11.22;91.69;96668.75;6186336;28;96571;-66
2023/11/24 13:58:50;;;;;;;;;3.00;1.40;;;;;10.80;88.93;96656.56;6205502;28;96305;-67
2023/11/24 14:01:54;;;;;;;;;1.00;1.00;;;;;10.81;88.36;96670.84;6176430;28;96195;-66
2023/11/24 14:04:57;;;;;;;;;1.00;0.00;;;;;10.54;88.05;96679.31;6204918;28;96314;-66
2023/11/24 14:08:00;;;;;;;;;2.00;2.00;;;;;10.31;89.13;96674.56;6213499;28;96592;-66
2023/11/24 14:11:07;;;;;;;;;1.75;1.50;;;;;10.30;90.03;96673.75;6214751;28;96368;-68
2023/11/24 14:14:10;;;;;;;;;1.80;1.00;;;;;10.15;91.67;96675.63;6191779;28;97834;-67
2023/11/24 14:17:14;;;;;;;;;1.60;1.00;;;;;10.11;92.24;96678.06;6199582;28;97163;-66
2023/11/24 14:20:17;;;;;;;;;1.00;1.00;;;;;10.32;91.73;96670.75;6201824;28;96553;-66
2023/11/24 14:23:20;;;;;;;;;2.00;2.00;;;;;10.22;92.33;96673.47;6212124;28;96338;-67